Time;durP1;ratioP1;P1;durP2;ratioP2;P2;SDS_P1;SDS_P2;PMS_P1;PMS_P2;Temp;Humidity;BMP_temperature;BMP_pressure;BME280_temperature;BME280_humidity;BME280_pressure;Samples;Min_cycle;Max_cycle;Signal;HPM_P1;HPM_P2
2022/07/29 00:01:52;;;;;;;13.32;11.23;;;17.10;99.90;;;;;;8294062;28;20116;-84
2022/07/29 00:05:52;;;;;;;14.05;10.05;;;17.30;99.90;;;;;;8294277;28;20458;-83
2022/07/29 00:09:53;;;;;;;13.02;10.93;;;17.30;99.90;;;;;;8293977;28;20238;-83
2022/07/29 00:13:54;;;;;;;12.85;11.27;;;17.10;99.90;;;;;;8293727;28;20379;-84
2022/07/29 00:17:54;;;;;;;19.80;13.15;;;17.10;99.90;;;;;;8294086;28;20033;-84
2022/07/29 00:21:55;;;;;;;16.63;11.65;;;17.00;99.90;;;;;;8293401;28;20589;-83
2022/07/29 00:25:55;;;;;;;15.07;13.45;;;17.20;99.90;;;;;;8293877;28;20062;-84
2022/07/29 00:29:56;;;;;;;16.02;13.60;;;17.20;99.90;;;;;;8293581;28;20053;-83
2022/07/29 00:33:56;;;;;;;21.58;12.98;;;17.10;99.90;;;;;;8293616;28;20481;-83
2022/07/29 00:37:57;;;;;;;15.32;12.48;;;17.10;99.90;;;;;;8293252;28;20053;-84
2022/07/29 00:41:57;;;;;;;14.10;12.40;;;17.00;99.90;;;;;;8293143;28;20029;-84
2022/07/29 00:45:58;;;;;;;20.27;11.70;;;17.00;99.90;;;;;;8293484;28;20117;-84
2022/07/29 00:49:58;;;;;;;12.05;10.50;;;17.00;99.90;;;;;;8294767;28;20113;-83
2022/07/29 00:53:59;;;;;;;12.95;9.40;;;17.00;99.90;;;;;;8292940;28;20029;-83
2022/07/29 00:58:00;;;;;;;14.07;9.93;;;17.10;99.90;;;;;;8294615;28;20076;-83
2022/07/29 01:02:01;;;;;;;11.35;8.85;;;16.90;99.90;;;;;;8294026;28;20026;-84
2022/07/29 01:06:02;;;;;;;11.05;9.90;;;16.80;99.90;;;;;;8295500;28;20041;-84
2022/07/29 01:10:06;;;;;;;11.38;10.15;;;16.80;99.90;;;;;;8299789;28;20195;-83
2022/07/29 01:14:08;;;;;;;13.68;10.90;;;16.70;99.90;;;;;;8301165;28;20452;-84
2022/07/29 01:18:20;;;;;;;14.70;10.13;;;16.60;99.90;;;;;;8300200;28;20574;-83
2022/07/29 01:22:36;;;;;;;11.10;8.90;;;16.50;99.90;;;;;;8293582;28;20030;-83
2022/07/29 01:26:39;;;;;;;10.15;8.60;;;16.40;99.90;;;;;;8296994;28;20026;-84
2022/07/29 01:30:44;;;;;;;16.10;9.45;;;16.20;99.90;;;;;;8298884;28;20040;-83
2022/07/29 01:34:54;;;;;;;10.77;8.20;;;16.00;99.90;;;;;;8299658;28;20021;-84
2022/07/29 01:39:19;;;;;;;11.63;8.48;;;15.80;99.90;;;;;;8298545;28;20120;-84
2022/07/29 01:43:55;;;;;;;12.40;9.68;;;15.60;99.90;;;;;;8299298;28;20120;-84
2022/07/29 01:48:04;;;;;;;10.40;8.38;;;15.50;99.90;;;;;;8297680;28;20038;-83
2022/07/29 01:52:15;;;;;;;14.80;7.53;;;15.90;99.90;;;;;;8299450;28;20018;-83
2022/07/29 01:56:18;;;;;;;13.68;8.20;;;15.80;99.90;;;;;;8292605;28;20062;-82
2022/07/29 02:00:19;;;;;;;12.50;8.13;;;15.80;99.90;;;;;;8298904;28;20038;-84
2022/07/29 02:04:21;;;;;;;10.27;7.95;;;15.70;99.90;;;;;;8297346;28;20029;-84
2022/07/29 02:08:23;;;;;;;11.50;8.07;;;15.80;99.90;;;;;;8297542;28;20068;-83
2022/07/29 02:12:25;;;;;;;11.50;7.95;;;15.50;99.90;;;;;;8297211;28;20030;-84
2022/07/29 02:16:28;;;;;;;14.68;8.15;;;15.50;99.90;;;;;;8297111;28;20024;-84
2022/07/29 02:20:30;;;;;;;10.13;7.50;;;15.20;99.90;;;;;;8298285;28;20072;-84
2022/07/29 02:24:32;;;;;;;11.38;6.60;;;15.00;99.90;;;;;;8297201;28;20398;-83
2022/07/29 02:28:33;;;;;;;11.32;6.60;;;15.10;99.90;;;;;;8296952;28;20033;-83
2022/07/29 02:32:41;;;;;;;11.75;7.97;;;14.80;99.90;;;;;;8296802;28;20251;-83
2022/07/29 02:36:43;;;;;;;9.23;7.35;;;14.60;99.90;;;;;;8296895;28;20025;-84
2022/07/29 02:40:44;;;;;;;15.02;8.02;;;14.60;99.90;;;;;;8296119;28;20064;-83
2022/07/29 02:44:46;;;;;;;9.90;7.57;;;14.70;99.90;;;;;;8298062;28;20060;-83
2022/07/29 02:49:09;;;;;;;10.35;7.45;;;14.70;99.90;;;;;;8296437;28;20030;-83
2022/07/29 02:53:18;;;;;;;9.07;7.32;;;14.60;99.90;;;;;;8278883;28;20063;-83
2022/07/29 02:57:29;;;;;;;13.63;7.30;;;14.50;99.90;;;;;;8290045;28;20410;-84
2022/07/29 03:01:32;;;;;;;9.48;6.15;;;14.40;99.90;;;;;;8296691;28;20022;-84
2022/07/29 03:05:35;;;;;;;11.82;5.80;;;14.20;99.90;;;;;;8296608;28;20482;-83
2022/07/29 03:09:36;;;;;;;11.55;7.05;;;14.20;99.90;;;;;;8297667;28;20037;-84
2022/07/29 03:13:38;;;;;;;12.85;8.20;;;14.00;99.90;;;;;;8296692;28;20017;-83
2022/07/29 03:17:39;;;;;;;15.25;9.02;;;14.00;99.90;;;;;;8298188;28;20021;-83
2022/07/29 03:21:40;;;;;;;12.20;8.30;;;14.10;99.90;;;;;;8296255;28;20052;-83
2022/07/29 03:25:40;;;;;;;16.00;7.78;;;14.20;99.90;;;;;;8296331;28;20022;-83
2022/07/29 03:29:41;;;;;;;11.27;7.15;;;14.10;99.90;;;;;;8295386;28;20406;-83
2022/07/29 03:33:41;;;;;;;13.27;7.30;;;14.00;99.90;;;;;;8295430;28;20013;-83
2022/07/29 03:37:43;;;;;;;10.82;8.07;;;13.90;99.90;;;;;;8295930;28;20060;-83
2022/07/29 03:41:47;;;;;;;14.32;8.73;;;13.80;99.90;;;;;;8294961;28;20030;-83
2022/07/29 03:45:50;;;;;;;13.95;9.43;;;13.90;99.90;;;;;;8293171;28;20065;-84
2022/07/29 03:49:53;;;;;;;12.45;9.70;;;13.80;99.90;;;;;;8290990;28;20033;-83
2022/07/29 03:53:54;;;;;;;13.30;9.98;;;13.80;99.90;;;;;;8289550;28;20030;-83
2022/07/29 03:57:56;;;;;;;13.00;9.50;;;13.80;99.90;;;;;;8295148;28;20067;-83
2022/07/29 04:01:57;;;;;;;11.82;7.47;;;13.80;99.90;;;;;;8294128;28;20026;-83
2022/07/29 04:06:05;;;;;;;15.18;8.05;;;13.80;99.90;;;;;;8294446;28;20063;-83
2022/07/29 04:10:07;;;;;;;17.88;9.32;;;13.60;99.90;;;;;;8292328;28;20026;-83
2022/07/29 04:14:08;;;;;;;14.90;9.45;;;13.60;99.90;;;;;;8294153;28;20026;-83
2022/07/29 04:18:08;;;;;;;17.58;9.65;;;13.80;99.90;;;;;;8289630;28;20049;-83
2022/07/29 04:22:09;;;;;;;13.43;9.02;;;14.00;99.90;;;;;;8284509;28;20494;-83
2022/07/29 04:26:10;;;;;;;16.80;9.13;;;14.10;99.90;;;;;;8292060;28;20087;-84
2022/07/29 04:30:12;;;;;;;13.18;9.10;;;14.20;99.90;;;;;;8294966;28;20030;-83
2022/07/29 04:34:12;;;;;;;11.63;8.23;;;14.40;99.90;;;;;;8283923;28;20036;-83
2022/07/29 04:38:13;;;;;;;8.52;7.07;;;14.60;99.90;;;;;;8291860;28;20581;-84
2022/07/29 04:42:13;;;;;;;7.10;6.10;;;14.80;99.90;;;;;;8292939;28;20042;-83
2022/07/29 04:46:14;;;;;;;9.40;6.63;;;15.00;99.90;;;;;;8293483;28;20042;-84
2022/07/29 04:50:14;;;;;;;7.22;5.00;;;15.10;99.90;;;;;;8288913;28;20033;-84
2022/07/29 04:54:15;;;;;;;7.60;4.50;;;15.60;99.90;;;;;;8285367;28;20022;-84
2022/07/29 04:58:15;;;;;;;8.30;4.28;;;16.10;99.90;;;;;;8288728;28;20021;-86
2022/07/29 05:02:16;;;;;;;4.38;3.65;;;16.50;99.90;;;;;;8292074;28;20125;-86
2022/07/29 05:06:16;;;;;;;11.75;4.60;;;16.50;99.90;;;;;;8293609;28;20512;-87
2022/07/29 05:10:17;;;;;;;4.70;3.83;;;16.70;99.90;;;;;;8293719;28;20536;-86
2022/07/29 05:14:17;;;;;;;3.55;3.25;;;17.10;99.90;;;;;;8295183;28;20040;-87
2022/07/29 05:18:18;;;;;;;7.43;3.60;;;17.40;99.90;;;;;;8293250;28;20045;-88
2022/07/29 05:22:20;;;;;;;3.80;2.65;;;18.00;99.90;;;;;;8294222;28;20400;-85
2022/07/29 05:26:20;;;;;;;5.47;2.25;;;19.00;99.90;;;;;;8294107;28;20030;-85
2022/07/29 05:30:21;;;;;;;4.00;2.40;;;19.80;99.90;;;;;;8295550;28;20398;-85
2022/07/29 05:34:21;;;;;;;3.97;2.40;;;19.90;99.90;;;;;;8295838;28;20106;-86
2022/07/29 05:38:22;;;;;;;2.97;2.67;;;19.70;99.90;;;;;;8295008;28;20442;-86
2022/07/29 05:42:23;;;;;;;8.63;2.72;;;19.70;99.90;;;;;;8294509;28;20080;-86
2022/07/29 05:46:24;;;;;;;9.70;2.78;;;19.80;99.90;;;;;;8293787;28;20022;-86
2022/07/29 05:50:24;;;;;;;4.05;2.28;;;19.90;99.90;;;;;;8294768;28;20088;-86
2022/07/29 05:54:25;;;;;;;6.43;2.55;;;19.80;99.90;;;;;;8299022;28;20075;-87
2022/07/29 05:58:26;;;;;;;2.50;2.30;;;19.80;99.90;;;;;;8298909;28;20107;-86
2022/07/29 06:02:26;;;;;;;6.43;2.45;;;19.90;99.90;;;;;;8298462;28;20647;-87
2022/07/29 06:06:27;;;;;;;5.05;2.38;;;19.70;99.90;;;;;;8298818;28;20494;-87
2022/07/29 06:10:27;;;;;;;3.97;2.13;;;19.70;99.90;;;;;;8298525;28;20021;-86
2022/07/29 06:14:28;;;;;;;5.47;2.40;;;19.70;99.90;;;;;;8299961;28;20033;-87
2022/07/29 06:18:28;;;;;;;7.22;2.00;;;20.00;99.90;;;;;;8295711;28;20037;-86
2022/07/29 06:22:29;;;;;;;3.15;2.00;;;20.90;99.90;;;;;;8298015;28;20022;-87
2022/07/29 06:26:30;;;;;;;3.58;1.88;;;21.10;99.90;;;;;;8299443;28;20109;-86
2022/07/29 06:30:30;;;;;;;3.90;2.20;;;21.20;99.90;;;;;;8297717;28;20064;-85
2022/07/29 06:34:31;;;;;;;2.20;1.75;;;20.80;99.90;;;;;;8298151;28;20037;-85
2022/07/29 06:38:32;;;;;;;3.08;2.20;;;20.30;99.90;;;;;;8296963;28;20040;-85
2022/07/29 06:42:33;;;;;;;2.50;2.10;;;19.70;99.90;;;;;;8296862;28;20041;-85
2022/07/29 06:46:33;;;;;;;4.28;2.60;;;19.40;99.90;;;;;;8298354;28;20033;-85
2022/07/29 06:50:34;;;;;;;2.88;2.30;;;19.30;99.90;;;;;;8297232;28;20068;-84
2022/07/29 06:54:34;;;;;;;4.78;2.80;;;19.80;99.90;;;;;;8298214;28;20016;-84
2022/07/29 06:58:36;;;;;;;3.50;2.75;;;19.80;99.90;;;;;;8297146;28;20026;-85
2022/07/29 07:02:36;;;;;;;4.60;2.72;;;19.80;99.90;;;;;;8295538;28;20026;-84
2022/07/29 07:06:37;;;;;;;6.43;2.88;;;19.80;99.90;;;;;;8296774;28;20473;-83
2022/07/29 07:10:38;;;;;;;3.92;2.95;;;19.70;99.90;;;;;;8296592;28;20021;-84
2022/07/29 07:14:40;;;;;;;7.30;2.60;;;19.60;99.90;;;;;;8296578;28;20056;-84
2022/07/29 07:18:41;;;;;;;4.18;2.47;;;19.40;99.90;;;;;;8297174;28;20542;-84
2022/07/29 07:22:41;;;;;;;6.55;2.95;;;19.60;99.90;;;;;;8297474;28;20088;-84
2022/07/29 07:26:42;;;;;;;4.60;2.60;;;19.60;99.90;;;;;;8296431;28;20022;-84
2022/07/29 07:30:43;;;;;;;5.07;2.92;;;19.70;99.90;;;;;;8296989;28;20034;-84
2022/07/29 07:34:43;;;;;;;2.67;2.33;;;19.90;99.90;;;;;;8296103;28;20014;-84
2022/07/29 07:38:44;;;;;;;4.63;2.38;;;20.20;99.90;;;;;;8296014;28;20026;-85
2022/07/29 07:42:45;;;;;;;3.47;2.83;;;20.60;99.90;;;;;;8295610;28;20402;-84
2022/07/29 07:46:45;;;;;;;3.13;2.35;;;20.70;99.90;;;;;;8295579;28;20030;-85
2022/07/29 07:50:46;;;;;;;7.32;2.60;;;20.70;99.90;;;;;;8295660;28;20060;-85
2022/07/29 07:54:47;;;;;;;3.42;2.60;;;20.80;99.90;;;;;;8296813;28;20025;-85
2022/07/29 07:58:47;;;;;;;2.97;2.67;;;20.60;99.90;;;;;;8295573;28;20057;-85
2022/07/29 08:02:48;;;;;;;2.83;2.22;;;20.90;99.90;;;;;;8295216;28;20033;-85
2022/07/29 08:06:49;;;;;;;2.65;2.10;;;21.70;99.90;;;;;;8296243;28;20040;-86
2022/07/29 08:10:52;;;;;;;3.42;2.65;;;22.10;99.90;;;;;;8296058;28;20056;-86
2022/07/29 08:14:53;;;;;;;3.03;2.38;;;23.00;99.90;;;;;;8295844;28;20100;-86
2022/07/29 08:18:56;;;;;;;3.65;2.42;;;23.80;99.90;;;;;;8294586;28;20030;-86
2022/07/29 08:22:57;;;;;;;3.83;2.40;;;23.70;99.90;;;;;;8295763;28;20028;-86
2022/07/29 08:26:57;;;;;;;5.65;3.30;;;24.20;99.90;;;;;;8294535;28;20057;-86
2022/07/29 08:30:58;;;;;;;3.53;2.60;;;24.60;99.90;;;;;;8294227;28;20462;-87
2022/07/29 08:35:00;;;;;;;8.85;2.83;;;25.00;99.90;;;;;;8295768;28;20026;-87
2022/07/29 08:39:02;;;;;;;3.20;2.60;;;24.90;99.90;;;;;;8294999;28;20026;-86
2022/07/29 08:43:09;;;;;;;4.15;2.90;;;25.20;99.90;;;;;;8293472;28;20030;-86
2022/07/29 08:47:13;;;;;;;4.13;2.90;;;25.00;99.90;;;;;;8292557;28;20398;-86
2022/07/29 08:51:16;;;;;;;4.30;2.70;;;25.10;99.90;;;;;;8293323;28;20073;-86
2022/07/29 08:55:17;;;;;;;3.10;2.08;;;25.50;99.90;;;;;;8295038;28;20482;-85
2022/07/29 08:59:21;;;;;;;3.13;2.30;;;25.70;99.90;;;;;;8292650;28;20049;-84
2022/07/29 09:03:27;;;;;;;2.60;2.40;;;25.50;99.90;;;;;;8296173;28;20517;-86
2022/07/29 09:07:28;;;;;;;3.85;2.70;;;25.00;99.90;;;;;;8294056;28;20040;-85
2022/07/29 09:11:28;;;;;;;2.92;2.63;;;25.30;99.90;;;;;;8293374;28;20029;-85
2022/07/29 09:15:29;;;;;;;3.63;2.67;;;24.80;99.90;;;;;;8295033;28;20022;-85
2022/07/29 09:19:31;;;;;;;2.78;2.30;;;25.70;99.90;;;;;;8294047;28;20076;-85
2022/07/29 09:23:32;;;;;;;4.00;2.70;;;26.30;99.90;;;;;;8295012;28;20164;-84
2022/07/29 09:27:33;;;;;;;4.75;2.42;;;26.30;99.90;;;;;;8297168;28;20026;-85
2022/07/29 09:31:35;;;;;;;3.22;2.03;;;26.40;99.90;;;;;;8299579;28;20030;-84
2022/07/29 09:35:36;;;;;;;3.90;2.30;;;27.20;99.90;;;;;;8299533;28;20080;-84
2022/07/29 09:39:45;;;;;;;3.00;2.10;;;27.00;99.90;;;;;;8299535;28;20500;-84
2022/07/29 09:43:59;;;;;;;2.88;2.25;;;26.70;99.90;;;;;;8299086;28;20088;-84
2022/07/29 09:48:17;;;;;;;2.25;2.05;;;27.20;99.90;;;;;;8299679;28;20057;-84
2022/07/29 09:52:17;;;;;;;4.00;2.13;;;27.40;99.90;;;;;;8300248;28;20030;-84
2022/07/29 09:56:18;;;;;;;3.38;2.17;;;26.30;99.90;;;;;;8300381;28;20551;-84
2022/07/29 10:00:19;;;;;;;4.55;2.15;;;25.50;99.90;;;;;;8298824;28;20437;-83
2022/07/29 10:04:20;;;;;;;3.25;2.47;;;25.50;99.90;;;;;;8298808;28;20018;-83
2022/07/29 10:08:26;;;;;;;2.67;2.45;;;25.30;99.90;;;;;;8298918;28;20030;-82
2022/07/29 10:12:27;;;;;;;4.15;2.75;;;25.10;99.90;;;;;;8299578;28;20061;-83
2022/07/29 10:16:32;;;;;;;3.40;2.50;;;24.80;99.90;;;;;;8298369;28;20018;-83
2022/07/29 10:20:33;;;;;;;4.68;2.88;;;25.20;99.90;;;;;;8298471;28;20029;-83
2022/07/29 10:24:35;;;;;;;3.55;2.47;;;25.20;99.90;;;;;;8298277;28;20022;-83
2022/07/29 10:28:35;;;;;;;6.65;2.58;;;25.00;99.90;;;;;;8299338;28;20483;-83
2022/07/29 10:32:36;;;;;;;5.55;2.53;;;25.30;99.90;;;;;;8297664;28;20037;-83
2022/07/29 10:37:18;;;;;;;3.55;2.38;;;25.70;99.90;;;;;;8299016;28;20026;-83
2022/07/29 10:41:54;;;;;;;4.28;3.00;;;25.90;99.90;;;;;;8297295;28;20070;-84
2022/07/29 10:45:59;;;;;;;4.55;2.78;;;26.30;99.90;;;;;;8277451;28;20509;-83
2022/07/29 10:50:02;;;;;;;8.63;2.90;;;26.80;99.90;;;;;;8297385;28;20025;-83
2022/07/29 10:54:05;;;;;;;6.75;2.90;;;27.10;99.90;;;;;;8298310;28;20033;-83
2022/07/29 10:58:20;;;;;;;2.88;2.40;;;27.10;99.90;;;;;;8298291;28;20014;-81
2022/07/29 11:02:36;;;;;;;5.93;2.60;;;26.80;99.90;;;;;;8298388;28;20034;-83
2022/07/29 11:06:58;;;;;;;4.60;2.67;;;26.80;99.90;;;;;;8296838;28;20104;-83
2022/07/29 11:11:20;;;;;;;4.35;3.00;;;26.90;99.90;;;;;;8297304;28;20061;-83
2022/07/29 11:15:22;;;;;;;5.85;3.20;;;26.60;99.90;;;;;;8296343;28;20022;-83
2022/07/29 11:19:23;;;;;;;3.63;2.28;;;26.30;99.90;;;;;;8297186;28;20152;-84
2022/07/29 11:23:25;;;;;;;2.88;2.60;;;26.40;99.90;;;;;;8297424;28;20029;-83
2022/07/29 11:27:31;;;;;;;3.10;2.60;;;26.50;99.90;;;;;;8296193;28;20067;-83
2022/07/29 11:31:43;;;;;;;3.40;2.60;;;26.50;99.90;;;;;;8295824;28;20033;-83
2022/07/29 11:36:08;;;;;;;3.15;2.70;;;26.60;99.90;;;;;;8296177;28;20072;-83
2022/07/29 11:40:11;;;;;;;2.92;2.63;;;26.80;99.90;;;;;;8295623;28;20052;-84
2022/07/29 11:44:12;;;;;;;2.60;2.40;;;26.90;99.90;;;;;;8296753;28;20535;-83
2022/07/29 11:48:18;;;;;;;4.00;2.78;;;27.20;99.90;;;;;;8295371;28;20029;-83
2022/07/29 11:52:19;;;;;;;3.45;2.60;;;26.90;99.90;;;;;;8295368;28;20156;-83
2022/07/29 11:56:23;;;;;;;3.80;2.50;;;26.70;99.90;;;;;;8296782;28;20125;-83
2022/07/29 12:00:31;;;;;;;4.05;2.65;;;26.20;99.90;;;;;;8296695;28;20018;-83
2022/07/29 12:04:31;;;;;;;3.20;2.53;;;26.20;99.90;;;;;;8295206;28;20026;-83
2022/07/29 12:08:42;;;;;;;4.03;2.70;;;25.80;99.90;;;;;;8295133;28;20032;-83
2022/07/29 12:12:42;;;;;;;3.25;2.92;;;25.20;99.90;;;;;;8296053;28;20017;-83
2022/07/29 12:16:43;;;;;;;5.63;3.30;;;25.00;99.90;;;;;;8295971;28;20456;-82
2022/07/29 12:20:44;;;;;;;3.97;2.92;;;24.90;99.90;;;;;;8294442;28;20049;-83
2022/07/29 12:24:45;;;;;;;4.63;3.03;;;24.70;99.90;;;;;;8295740;28;20490;-83
2022/07/29 12:28:45;;;;;;;3.28;2.97;;;24.80;99.90;;;;;;8295904;28;20053;-83
2022/07/29 12:32:47;;;;;;;4.50;3.10;;;24.70;99.90;;;;;;8293350;28;20034;-83
2022/07/29 12:36:49;;;;;;;3.50;2.80;;;24.80;99.90;;;;;;8294467;28;20486;-84
2022/07/29 12:40:51;;;;;;;3.65;2.80;;;25.40;99.90;;;;;;8294727;28;20033;-83
2022/07/29 12:44:52;;;;;;;4.03;2.88;;;26.40;99.90;;;;;;8294304;28;20041;-83
2022/07/29 12:48:54;;;;;;;3.20;2.90;;;27.20;99.90;;;;;;8295606;28;20058;-83
2022/07/29 12:53:08;;;;;;;3.35;2.60;;;28.80;99.90;;;;;;8295218;28;20022;-82
2022/07/29 12:57:09;;;;;;;3.22;2.78;;;30.70;99.90;;;;;;8295607;28;20077;-83
2022/07/29 13:01:14;;;;;;;3.28;2.60;;;31.90;98.50;;;;;;8296751;28;20029;-84
2022/07/29 13:05:16;;;;;;;4.40;3.22;;;33.70;95.60;;;;;;8300346;28;20041;-84
2022/07/29 13:09:23;;;;;;;3.72;2.28;;;35.60;87.50;;;;;;8300733;28;20026;-83
2022/07/29 13:13:24;;;;;;;2.75;2.38;;;35.20;75.20;;;;;;8301138;28;20060;-84
2022/07/29 13:17:27;;;;;;;2.40;2.20;;;33.80;80.10;;;;;;8300901;28;20033;-84
2022/07/29 13:21:27;;;;;;;4.13;2.72;;;33.10;77.40;;;;;;8299529;28;20034;-84
2022/07/29 13:25:31;;;;;;;4.10;2.80;;;33.30;79.10;;;;;;8299973;28;20490;-83
2022/07/29 13:29:32;;;;;;;2.70;2.10;;;33.00;78.40;;;;;;8300993;28;20430;-84
2022/07/29 13:33:33;;;;;;;2.50;2.00;;;32.90;76.20;;;;;;8300884;28;20394;-84
2022/07/29 13:37:37;;;;;;;2.90;2.25;;;32.70;77.30;;;;;;8299820;28;20028;-83
2022/07/29 13:41:38;;;;;;;1.98;1.75;;;33.00;75.90;;;;;;8299130;28;20022;-83
2022/07/29 13:45:38;;;;;;;3.80;2.20;;;32.80;71.30;;;;;;8300579;28;20018;-83
2022/07/29 13:49:39;;;;;;;4.38;1.90;;;32.30;73.00;;;;;;8299296;28;20026;-83
2022/07/29 13:53:40;;;;;;;3.58;1.75;;;31.60;73.60;;;;;;8300251;28;20022;-83
2022/07/29 13:57:40;;;;;;;1.88;1.70;;;31.50;74.20;;;;;;8300265;28;20033;-83
2022/07/29 14:01:41;;;;;;;3.22;1.73;;;31.70;72.80;;;;;;8298586;28;20048;-84
2022/07/29 14:05:42;;;;;;;5.38;1.90;;;31.30;77.90;;;;;;8298807;28;20033;-83
2022/07/29 14:09:43;;;;;;;4.63;1.83;;;31.40;74.40;;;;;;8297763;28;20026;-83
2022/07/29 14:13:43;;;;;;;3.25;2.00;;;31.00;79.50;;;;;;8298596;28;20037;-83
2022/07/29 14:17:44;;;;;;;3.67;2.40;;;30.20;78.20;;;;;;8299560;28;20438;-83
2022/07/29 14:21:45;;;;;;;2.55;2.20;;;29.10;82.90;;;;;;8299055;28;20737;-83
2022/07/29 14:25:45;;;;;;;3.58;2.15;;;28.40;83.70;;;;;;8298377;28;20030;-83
2022/07/29 14:29:46;;;;;;;5.95;2.10;;;28.00;87.40;;;;;;8298126;28;20065;-83
2022/07/29 14:33:47;;;;;;;3.28;2.42;;;27.40;90.80;;;;;;8296823;28;20401;-83
2022/07/29 14:37:47;;;;;;;2.97;2.45;;;26.90;91.40;;;;;;8292872;28;20030;-82
2022/07/29 14:41:48;;;;;;;3.28;2.30;;;26.60;93.90;;;;;;8295475;28;20030;-82
2022/07/29 14:45:49;;;;;;;5.00;2.30;;;26.00;95.40;;;;;;8298565;28;20034;-82
2022/07/29 14:49:49;;;;;;;5.25;2.00;;;24.90;98.00;;;;;;8298227;28;20206;-81
2022/07/29 14:53:50;;;;;;;11.65;2.25;;;23.90;99.90;;;;;;8297205;28;20076;-81
2022/07/29 14:57:50;;;;;;;4.88;2.45;;;22.80;99.90;;;;;;8297079;28;20030;-81
2022/07/29 15:01:51;;;;;;;2.63;2.42;;;22.10;99.90;;;;;;8297296;28;20030;-81
2022/07/29 15:05:52;;;;;;;5.40;2.70;;;21.80;99.90;;;;;;8296141;28;20048;-81
2022/07/29 15:09:52;;;;;;;2.50;2.20;;;21.60;99.90;;;;;;8297336;28;20073;-81
2022/07/29 15:13:53;;;;;;;3.53;2.45;;;21.00;99.90;;;;;;8295482;28;20025;-81
2022/07/29 15:17:57;;;;;;;24.00;6.28;;;20.30;99.90;;;;;;8294991;28;20055;-82
2022/07/29 15:21:57;;;;;;;33.90;7.53;;;19.70;99.90;;;;;;8296735;28;20029;-84
2022/07/29 15:25:58;;;;;;;8.00;5.70;;;18.90;99.90;;;;;;8296959;28;20077;-85
2022/07/29 15:29:58;;;;;;;5.85;4.07;;;18.50;99.90;;;;;;8297233;28;20039;-86
2022/07/29 15:33:59;;;;;;;13.95;5.50;;;18.10;99.90;;;;;;8304207;28;20044;-86
2022/07/29 15:37:59;;;;;;;8.43;4.53;;;17.80;99.90;;;;;;8299077;28;20022;-85
2022/07/29 15:42:00;;;;;;;8.38;5.68;;;17.60;99.90;;;;;;8295351;28;20068;-85
2022/07/29 15:50:20;;;;;;;5.88;5.15;;;17.70;99.90;;;;;;8297664;28;20041;-90
2022/07/29 15:54:21;;;;;;;7.03;5.22;;;18.00;99.90;;;;;;8295752;28;20029;-90
2022/07/29 15:58:22;;;;;;;8.05;6.15;;;18.10;99.90;;;;;;8293948;28;20058;-89
2022/07/29 16:02:22;;;;;;;8.60;6.40;;;18.30;99.90;;;;;;8295471;28;20406;-89
2022/07/29 16:06:26;;;;;;;11.07;6.80;;;18.20;99.90;;;;;;8294872;28;20030;-90
2022/07/29 16:10:27;;;;;;;10.15;7.40;;;18.00;99.90;;;;;;8293872;28;20025;-90
2022/07/29 16:14:27;;;;;;;10.63;6.78;;;17.90;99.90;;;;;;8294968;28;20073;-90
2022/07/29 16:18:28;;;;;;;8.23;6.70;;;18.20;99.90;;;;;;8294751;28;20057;-90
2022/07/29 16:22:28;;;;;;;5.55;4.97;;;18.10;99.90;;;;;;8293937;28;20518;-90
2022/07/29 16:26:29;;;;;;;7.45;5.70;;;18.10;99.90;;;;;;8294607;28;20026;-90
2022/07/29 16:31:27;;;;;;;;;;;;;;;;;;;;;
2022/07/29 16:35:29;;;;;;;6.18;5.57;;;17.90;99.90;;;;;;8289271;28;20037;-91
2022/07/29 16:39:30;;;;;;;9.07;7.28;;;17.90;99.90;;;;;;8293676;28;20112;-90
2022/07/29 16:43:40;;;;;;;9.00;5.65;;;17.90;99.90;;;;;;8292609;28;20025;-90
2022/07/29 16:47:40;;;;;;;5.53;4.35;;;17.90;99.90;;;;;;8290553;28;20030;-83
2022/07/29 16:51:41;;;;;;;4.65;3.92;;;17.80;99.90;;;;;;8287763;28;20061;-84
2022/07/29 16:55:41;;;;;;;5.15;4.18;;;17.80;99.90;;;;;;8294118;28;20406;-84
2022/07/29 16:59:42;;;;;;;9.38;4.68;;;17.80;99.90;;;;;;8294450;28;20189;-84
2022/07/29 17:08:02;;;;;;;6.70;4.95;;;17.80;99.90;;;;;;8290235;28;20516;-84
2022/07/29 17:12:02;;;;;;;5.88;5.00;;;17.80;99.90;;;;;;8293067;28;20033;-84
2022/07/29 17:16:03;;;;;;;8.75;6.63;;;17.70;99.90;;;;;;8295107;28;20029;-85
2022/07/29 17:20:04;;;;;;;9.15;5.25;;;17.70;99.90;;;;;;8291254;28;20030;-84
2022/07/29 17:24:05;;;;;;;8.05;4.88;;;17.80;99.90;;;;;;8295116;28;20425;-84
2022/07/29 17:28:06;;;;;;;6.55;5.20;;;17.90;99.90;;;;;;8294840;28;20033;-84
2022/07/29 17:32:08;;;;;;;7.80;5.40;;;17.90;99.90;;;;;;8294634;28;20649;-84
2022/07/29 17:36:24;;;;;;;5.43;4.93;;;17.90;99.90;;;;;;8293968;28;20502;-84
2022/07/29 17:40:24;;;;;;;5.25;4.60;;;17.80;99.90;;;;;;8291926;28;20029;-84
2022/07/29 17:44:25;;;;;;;6.53;4.40;;;17.80;99.90;;;;;;8294523;28;20462;-84
2022/07/29 17:48:25;;;;;;;5.05;4.55;;;17.70;99.90;;;;;;8293310;28;20022;-84
2022/07/29 17:52:26;;;;;;;7.38;5.60;;;17.70;99.90;;;;;;8300290;28;20038;-85
2022/07/29 17:56:26;;;;;;;5.93;5.32;;;17.60;99.90;;;;;;8300710;28;20449;-85
2022/07/29 18:00:27;;;;;;;6.93;6.22;;;17.50;99.90;;;;;;8295814;28;20022;-85
2022/07/29 18:04:29;;;;;;;8.27;7.05;;;17.40;99.90;;;;;;8295675;28;20026;-85
2022/07/29 18:08:30;;;;;;;8.30;7.40;;;17.40;99.90;;;;;;8297016;28;20038;-84
2022/07/29 18:12:31;;;;;;;9.48;8.18;;;17.30;99.90;;;;;;8298356;28;20022;-85
2022/07/29 18:16:31;;;;;;;7.88;6.88;;;17.50;99.90;;;;;;8298956;28;20169;-85
2022/07/29 18:20:32;;;;;;;8.63;7.68;;;17.40;99.90;;;;;;8299659;28;20550;-85
2022/07/29 18:24:34;;;;;;;8.82;7.97;;;17.40;99.90;;;;;;8298533;28;20034;-85
2022/07/29 18:28:35;;;;;;;10.32;8.23;;;17.40;99.90;;;;;;8297822;28;20551;-84
2022/07/29 18:32:35;;;;;;;11.25;8.70;;;17.50;99.90;;;;;;8295465;28;20026;-85
2022/07/29 18:36:36;;;;;;;8.40;7.05;;;17.40;99.90;;;;;;8298428;28;20104;-84
2022/07/29 18:40:38;;;;;;;9.25;8.20;;;17.50;99.90;;;;;;8297719;28;20409;-85
2022/07/29 18:44:39;;;;;;;10.65;8.20;;;17.40;99.90;;;;;;8295933;28;20024;-85
2022/07/29 18:48:39;;;;;;;11.70;9.43;;;17.40;99.90;;;;;;8296790;28;20031;-84
2022/07/29 18:52:40;;;;;;;9.43;8.30;;;17.40;99.90;;;;;;8297522;28;20032;-85
2022/07/29 18:56:41;;;;;;;11.00;8.63;;;17.40;99.90;;;;;;8299167;28;20017;-84
2022/07/29 19:00:41;;;;;;;14.13;8.75;;;17.40;99.90;;;;;;8297052;28;20022;-85
2022/07/29 19:04:42;;;;;;;9.60;8.30;;;17.40;99.90;;;;;;8295900;28;20029;-84
2022/07/29 19:08:43;;;;;;;10.27;7.95;;;17.30;99.90;;;;;;8297656;28;20026;-84
2022/07/29 19:12:43;;;;;;;9.52;8.30;;;17.30;99.90;;;;;;8295134;28;20056;-84
2022/07/29 19:16:44;;;;;;;9.98;9.00;;;17.30;99.90;;;;;;8293893;28;20026;-83
2022/07/29 19:20:44;;;;;;;10.50;9.50;;;17.30;99.90;;;;;;8297394;28;20040;-85
2022/07/29 19:24:45;;;;;;;9.98;8.98;;;17.20;99.90;;;;;;8296610;28;20037;-83
2022/07/29 19:28:46;;;;;;;12.00;9.90;;;17.30;99.90;;;;;;8293938;28;20037;-84
2022/07/29 19:32:47;;;;;;;10.07;9.00;;;17.20;99.90;;;;;;8298443;28;20037;-82
2022/07/29 19:36:47;;;;;;;12.98;9.57;;;17.30;99.90;;;;;;8296479;28;20593;-84
2022/07/29 19:40:48;;;;;;;9.23;8.32;;;17.30;99.90;;;;;;8290718;28;20133;-84
2022/07/29 19:44:48;;;;;;;9.25;8.25;;;17.40;99.90;;;;;;8297928;28;20091;-83
2022/07/29 19:48:49;;;;;;;10.13;8.32;;;17.30;99.90;;;;;;8296668;28;20022;-83
2022/07/29 19:52:51;;;;;;;9.85;8.85;;;17.20;99.90;;;;;;8297821;28;20037;-83
2022/07/29 19:56:52;;;;;;;12.75;8.18;;;17.20;99.90;;;;;;8291782;28;20033;-83
2022/07/29 20:00:52;;;;;;;10.15;8.48;;;17.20;99.90;;;;;;8295913;28;20124;-84
2022/07/29 20:04:53;;;;;;;7.78;6.90;;;17.10;99.90;;;;;;8295614;28;20045;-83
2022/07/29 20:08:54;;;;;;;11.65;7.68;;;17.20;99.90;;;;;;8297269;28;20050;-83
2022/07/29 20:12:55;;;;;;;8.57;6.75;;;17.10;99.90;;;;;;8295993;28;20635;-83
2022/07/29 20:16:55;;;;;;;6.53;5.40;;;17.10;99.90;;;;;;8294927;28;20030;-84
2022/07/29 20:20:56;;;;;;;6.68;5.78;;;17.10;99.90;;;;;;8307825;28;20488;-83
2022/07/29 20:24:56;;;;;;;7.32;5.70;;;17.10;99.90;;;;;;8328938;28;20030;-82
2022/07/29 20:28:57;;;;;;;5.75;5.15;;;17.10;99.90;;;;;;8328045;28;20116;-83
2022/07/29 20:32:58;;;;;;;9.00;6.47;;;17.00;99.90;;;;;;8325205;28;20394;-83
2022/07/29 20:37:00;;;;;;;6.13;5.43;;;16.80;99.90;;;;;;8324357;28;20028;-80
2022/07/29 20:41:00;;;;;;;8.85;6.57;;;16.80;99.90;;;;;;8325123;28;20116;-83
2022/07/29 20:45:02;;;;;;;6.72;6.13;;;16.80;99.90;;;;;;8322436;28;20432;-82
2022/07/29 20:49:02;;;;;;;8.50;5.88;;;16.70;99.90;;;;;;8327465;28;20413;-83
2022/07/29 20:53:03;;;;;;;7.28;5.75;;;16.70;99.90;;;;;;8326555;28;20060;-82
2022/07/29 20:57:04;;;;;;;7.35;5.80;;;16.60;99.90;;;;;;8327950;28;20026;-83
2022/07/29 21:01:05;;;;;;;9.00;5.50;;;16.60;99.90;;;;;;8326311;28;20048;-82
2022/07/29 21:05:06;;;;;;;5.97;5.38;;;16.50;99.90;;;;;;8322061;28;20041;-83
2022/07/29 21:09:06;;;;;;;5.75;5.25;;;16.50;99.90;;;;;;8323604;28;20022;-83